Stations météo

réclame
Mon MeteoGroup
Tarfala, Suède (2029): Température de l'air & dewpoint: 17.05.2018 22:00:00 - 23.05.2018 22:00:00 (CEST)Tarfala, Suède (2029): Vitesse du vent & gusts: 17.05.2018 22:00:00 - 23.05.2018 22:00:00 (CEST)Tarfala, Suède (2029): Direction du vent: 17.05.2018 22:00:00 - 23.05.2018 22:00:00 (CEST)
Date & Time tt [°C] td [°C] ff [km/h] ff [knt] fx [km/h] fx [knt] dd
23.05.2018 22:00:00 -1,3 -8,3 22 12 29 16 NNW
23.05.2018 21:00:00 -1,0 -9,4 14 7 29 16 NW
23.05.2018 20:00:00 -0,5 -8,7 8 4 22 12 NNW
23.05.2018 19:00:00 0,2 -8,7 12 7 27 15 NW
23.05.2018 18:00:00 0,3 -7,0 12 7 26 14 NNW
23.05.2018 17:00:00 0,1 -6,3 16 9 27 14 NW
23.05.2018 16:00:00 0,3 -6,1 15 8 34 18 WNW
23.05.2018 15:00:00 0,1 -7,0 15 8 36 19 NNW
23.05.2018 14:00:00 -0,4 -7,0 15 8 27 15 NW
23.05.2018 13:00:00 0,0 -7,3 12 7 25 13 NW
23.05.2018 12:00:00 -0,8 -7,4 15 8 31 17 NNW
23.05.2018 11:00:00 -1,2 -8,2 14 8 36 19 NW
23.05.2018 10:00:00 -1,7 -8,7 19 10 28 15 NNW
23.05.2018 09:00:00 -1,5 -9,6 18 10 26 14 NNW
23.05.2018 08:00:00 -0,7 -12,6 10 6 29 15 NW
23.05.2018 07:00:00 -1,7 -9,6 17 9 50 27 NW
23.05.2018 06:00:00 -2,5 -9,0 35 19 63 34 WNW
23.05.2018 05:00:00 -2,3 -8,6 46 25 79 43 NW
23.05.2018 04:00:00 -2,5 -7,8 44 24 75 40 NW
23.05.2018 03:00:00 -1,9 -8,8 32 18 67 36 WNW
23.05.2018 02:00:00 -1,9 -10,9 44 24 73 40 NW
23.05.2018 01:00:00 -1,3 -9,9 43 23 71 38 NW
23.05.2018 00:00:00 -0,7 -6,1 34 19 66 36 NW
22.05.2018 23:00:00 -0,7 -5,3 37 20 66 36 WNW
22.05.2018 22:00:00 -0,6 -6,0 37 20 72 39 WNW
22.05.2018 21:00:00 -0,5 -5,5 48 26 77 41 NW
22.05.2018 20:00:00 -0,5 -5,5 46 25 82 44 NW
22.05.2018 19:00:00 -0,6 -4,1 45 25 66 36 NW
22.05.2018 18:00:00 0,7 -5,3 45 24 72 39 NW
22.05.2018 17:00:00 1,0 -4,6 36 19 69 38 NW
22.05.2018 16:00:00 1,6 -2,9 40 22 67 36 NNW
22.05.2018 15:00:00 2,0 -1,1 29 16 55 30 NNW
22.05.2018 14:00:00 2,9 0,0 13 7 43 23 WNW
22.05.2018 13:00:00 4,9 1,0 13 7 56 30 ESE
22.05.2018 12:00:00 6,8 0,5 12 7 44 24 ENE
22.05.2018 11:00:00 7,8 -0,4 15 8 51 28 WNW
22.05.2018 10:00:00 7,4 -1,3 16 9 49 26 WNW
22.05.2018 09:00:00 7,7 0,4 22 12 63 34 NW
22.05.2018 08:00:00 6,9 -0,1 19 10 61 33 NNE
22.05.2018 07:00:00 6,3 -0,7 15 8 56 30 NW
22.05.2018 06:00:00 6,1 -1,1 19 10 51 27 NNW
22.05.2018 05:00:00 6,3 -0,9 28 15 69 37 WNW
22.05.2018 04:00:00 5,2 1,3 19 10 57 31 NNW
22.05.2018 03:00:00 5,3 1,6 24 13 63 34 NNW
22.05.2018 02:00:00 5,3 1,4 17 9 60 33 NW
22.05.2018 01:00:00 4,3 1,5 17 9 61 33 NE
22.05.2018 00:00:00 4,4 1,8 16 9 49 26 NNE
21.05.2018 23:00:00 4,1 2,0 16 9 55 30 SSE
21.05.2018 22:00:00 3,6 1,3 18 10 51 28 SSE
21.05.2018 21:00:00 3,4 0,8 7 4 32 18 E
21.05.2018 20:00:00 2,7 0,1 10 5 35 19 NW
21.05.2018 19:00:00 3,0 -0,3 14 8 52 28 NW
21.05.2018 18:00:00 3,2 -0,4 28 15 54 29 N
21.05.2018 17:00:00 3,3 0,0 17 9 81 44 WNW
21.05.2018 16:00:00 3,4 0,3 29 16 82 45 NNE
21.05.2018 15:00:00 3,7 0,9 23 12 67 36 NNW
21.05.2018 14:00:00 3,5 1,5 16 8 51 28 S
21.05.2018 13:00:00 4,1 1,6 22 12 58 31 S
21.05.2018 12:00:00 3,8 1,8 19 11 68 37 W
21.05.2018 11:00:00 3,6 1,6 19 10 82 44 NNE
21.05.2018 10:00:00 4,2 1,4 20 11 78 42 N
21.05.2018 09:00:00 4,2 1,4 13 7 57 31 ESE
21.05.2018 08:00:00 4,5 1,2 16 9 52 28 SE
21.05.2018 07:00:00 4,1 1,1 16 8 58 32 S
21.05.2018 06:00:00 4,0 1,0 16 9 49 27 SSE
21.05.2018 05:00:00 4,3 1,0 13 7 50 27 N
21.05.2018 04:00:00 4,4 1,6 16 9 55 30 S
21.05.2018 03:00:00 4,4 1,3 17 9 46 25 SE
21.05.2018 02:00:00 4,1 1,1 20 11 63 34 SSE
21.05.2018 01:00:00 4,5 1,4 21 12 65 35 W
21.05.2018 00:00:00 4,5 1,2 22 12 58 32 S
20.05.2018 23:00:00 4,5 1,0 22 12 73 39 NNW
20.05.2018 22:00:00 4,6 1,4 24 13 80 43 WNW
20.05.2018 21:00:00 4,6 0,9 31 17 85 46 WNW
20.05.2018 20:00:00 4,0 0,5 19 10 90 49 NNE
20.05.2018 19:00:00 3,8 0,3 29 16 76 41 S
20.05.2018 18:00:00 3,8 0,3 38 20 105 57 S
20.05.2018 17:00:00 3,8 0,3 17 9 70 38 S
20.05.2018 16:00:00 4,3 0,4 25 14 75 41 S
20.05.2018 15:00:00 4,6 -0,4 33 18 81 44 W
20.05.2018 14:00:00 5,5 -2,1 27 15 62 34 WNW
20.05.2018 13:00:00 6,0 -5,0 17 9 73 40 SSW
20.05.2018 12:00:00 5,2 -4,4 24 13 61 33 SSE
20.05.2018 11:00:00 4,0 -1,0 23 12 51 28 ESE
20.05.2018 10:00:00 3,6 -0,4 9 5 55 30 E
20.05.2018 09:00:00 3,4 0,1 19 11 44 24 S
20.05.2018 08:00:00 2,6 0,3 23 13 66 36 NE
20.05.2018 07:00:00 1,9 0,0 31 17 79 43 N
20.05.2018 06:00:00 2,0 -1,8 27 15 65 35 N
20.05.2018 05:00:00 0,3 -8,2 26 14 53 29 NNW
20.05.2018 04:00:00 -2,0 -10,8 24 13 55 30 NNW
20.05.2018 03:00:00 0,5 -11,5 16 9 54 29 NNE
20.05.2018 02:00:00 -1,9 -11,5 31 17 50 27 NNW
20.05.2018 01:00:00 -1,3 -12,9 19 11 48 26 W
20.05.2018 00:00:00 -1,3 -12,3 28 15 54 29 WNW
19.05.2018 23:00:00 -1,1 -12,1 34 18 80 43 NW
19.05.2018 22:00:00 -2,0 -7,3 36 20 66 36 W
19.05.2018 21:00:00 -1,7 -6,6 37 20 64 34 WNW
19.05.2018 20:00:00 -1,4 -7,3 34 19 92 50 NW
19.05.2018 19:00:00 -0,8 -7,4 34 18 93 50 N
19.05.2018 18:00:00 -0,4 -4,3 34 19 99 54 N
19.05.2018 17:00:00 -0,1 -4,9 23 12 102 55 NE
19.05.2018 16:00:00 0,4 -5,0 26 14 95 52 N
19.05.2018 15:00:00 1,3 -5,0 29 16 82 44 WSW
19.05.2018 14:00:00 1,9 -1,9 23 12 84 45 W
19.05.2018 13:00:00 2,1 -1,5 22 12 69 37 WNW
19.05.2018 12:00:00 2,5 -2,0 14 8 78 42 SSW
19.05.2018 11:00:00 2,8 -2,9 25 13 81 44 NW
19.05.2018 10:00:00 2,3 -4,7 18 10 56 30 NNE
19.05.2018 09:00:00 2,1 -5,3 13 7 58 31 ENE
19.05.2018 08:00:00 2,4 -5,5 16 9 69 37 ENE
19.05.2018 07:00:00 1,8 -6,3 27 15 57 31 N
19.05.2018 06:00:00 1,8 -6,0 29 16 61 33 NNW
19.05.2018 05:00:00 1,2 -5,9 33 18 77 41 NW
19.05.2018 04:00:00 1,3 -5,2 41 22 67 36 WNW
19.05.2018 03:00:00 1,7 -4,0 22 12 41 22 W
19.05.2018 02:00:00 -0,8 -1,8 5 3 35 19 WNW
19.05.2018 01:00:00 0,5 -2,7 21 12 39 21 WNW
19.05.2018 00:00:00 0,1 -2,8 13 7 29 16 W
18.05.2018 23:00:00 -0,4 -1,8 5 3 26 14 SSW
18.05.2018 22:00:00 0,0 -2,2 10 5 58 31 NNW
18.05.2018 21:00:00 0,9 -3,2 29 15 63 34 NW
18.05.2018 20:00:00 0,7 -3,0 31 17 55 30 NW
18.05.2018 19:00:00 0,9 -3,0 26 14 71 38 NW
18.05.2018 18:00:00 1,0 -3,3 40 22 81 44 NW
18.05.2018 17:00:00 0,9 -3,6 34 19 77 41 NW
18.05.2018 16:00:00 0,5 -3,8 24 13 64 34 NNW
18.05.2018 15:00:00 0,5 -4,3 29 16 52 28 NW
18.05.2018 14:00:00 0,2 -5,4 35 19 80 43 NW
18.05.2018 13:00:00 -0,3 -6,5 31 17 63 34 W
18.05.2018 12:00:00 0,0 -6,8 34 18 71 38 W
18.05.2018 11:00:00 -1,0 -8,7 42 23 66 36 NW
18.05.2018 10:00:00 -0,8 -7,6 26 14 55 30 W
18.05.2018 09:00:00 -1,7 -5,9 23 13 68 37 NW
18.05.2018 08:00:00 -1,2 -5,6 34 18 53 29 NW
18.05.2018 07:00:00 -1,1 -5,0 17 9 63 34 WNW
18.05.2018 06:00:00 -1,0 -5,4 35 19 74 40 NW
18.05.2018 05:00:00 -0,8 -4,3 37 20 59 32 NW
18.05.2018 04:00:00 -0,9 -3,9 34 18 61 33 NW
18.05.2018 03:00:00 -0,4 -4,3 29 16 54 29 W
18.05.2018 02:00:00 -0,3 -4,4 24 13 44 24 NW
18.05.2018 01:00:00 -0,4 -4,1 24 13 44 24 NW
18.05.2018 00:00:00 -0,3 -5,3 8 4 24 13 N
17.05.2018 23:00:00 -0,8 -4,7 9 5 39 21 NNW
17.05.2018 22:00:00 -0,1 -5,1 20 11 35 19 NNW

tt = Température de l'air
td = dewpoint
ff = Vitesse du vent
fx = gusts
dd = Direction du vent

stations d'obs. à proximité